KOWA

Owatonna Degner Regional Airport

Owatonna, Minnesota, USA
METAR KOWA 160110Z AUTO 16014KT 10SM CLR 03/M04 A3005 RMK AO2
Observed Flight Rules
Dec-16 @ 01:10 UTC (16 minutes ago) Visual Flight Rules
Wind Visibility Clouds
160° at 14 knots 10 miles
  • Clear skies
Temperatures Readings
Current 3°C / 37°F
Dewpoint -4°C / 25°F
Humidity 60%
Altimeter 30.05" Hg
Pressure 1018 hPa
Elevation 350
METAR KOWA 160110Z AUTO 16014KT 10SM CLR 03/M04 A3005 RMK AO2
Observed Flight Rules
Dec-16 @ 01:10 UTC
(16 minutes ago)
VFR
Wind Visibility
160° at 14 knots 10 miles
Clouds
  • Clear skies
Temperature Dewpoint
3°C / 37°F -4°C / 25°F
Humidity Altimeter Pressure
60% 30.05" Hg 1018 hPa